ESSP

Norrköping Airport

Norrköping, Sweden
METAR ESSP 180220Z AUTO VRB01KT 9999 FEW007/// M07/M08 Q1018
Observed Flight Rules
Dec-18 @ 02:20 UTC (38 minutes ago) Visual Flight Rules
Wind Visibility Clouds
Variable at 1 knots 10,000+ meters
  • Few at 700' AGL
Temperatures Readings
Current -7°C / 19°F
Dewpoint -8°C / 18°F
Humidity 93%
Altimeter 30.06" Hg
Pressure 1018 hPa
Elevation 8
METAR ESSP 180220Z AUTO VRB01KT 9999 FEW007/// M07/M08 Q1018
Observed Flight Rules
Dec-18 @ 02:20 UTC
(38 minutes ago)
VFR
Wind Visibility
Variable at 1 knots 10,000+ meters
Clouds
  • Few at 700' AGL
Temperature Dewpoint
-7°C / 19°F -8°C / 18°F
Humidity Altimeter Pressure
93% 30.06" Hg 1018 hPa